4R5

Major Gilbert Field Airport

La Pointe, Wisconsin, USA
METAR K4R5 190715Z AUTO 00000KT 10SM CLR M01/M03 A2973 RMK AO2 T10151032
Observed Flight Rules
Dec-19 @ 07:15 UTC (17 minutes ago) Visual Flight Rules
Visibility Clouds
10 miles
  • Clear skies
Temperatures Readings
Current -2°C / 28°F
Dewpoint -3°C / 27°F
Humidity 93%
Altimeter 29.73" Hg
Pressure 1007 hPa
Elevation 198
METAR K4R5 190715Z AUTO 00000KT 10SM CLR M01/M03 A2973 RMK AO2 T10151032
Observed Flight Rules
Dec-19 @ 07:15 UTC
(17 minutes ago)
VFR
Clouds
  • Clear skies
Temperature Dewpoint
-2°C / 28°F -3°C / 27°F
Humidity Altimeter Pressure
93% 29.73" Hg 1007 hPa